< < Back
Terminal Aerodrome Forecast


Current Version              Previous Versions:   1  2  3  4  5  6  7  8  9  

Terminal Aerodrome Forecast

515
FTUS44 KMRX 031128
TAFTYS
TAF
KTYS 031128Z 0312/0412 VRB04KT P6SM VCSH SCT009 OVC015
     FM031600 29008KT P6SM SCT015 OVC025
     FM031800 30010KT P6SM OVC035
     FM032300 28007KT P6SM OVC040=

Latest METAR

111
SAUS80 KWBC 031400 RRA
MTRTYS
METAR KTYS 031353Z 33007KT 4SM -RA BR SCT005 BKN015 OVC021 16/13 A2991
RMK AO2 SLP122 P0013 T01560133


USA.gov is the U.S. government's official web portal to all federal, state and local government web resources and services.